< Cyclone 198211 1982 Season Cyclone 198213 >
Cyclone 198212 (HARRIET)
General InformationTrack Information on Google MapsList of All Images || ResourceGoogle EarthGE AnimationAtom FeedGeoJSON
Detalied Best Track (Time Zone = UTC)
Year Month Day Hour Lat. Long. Pressure (hPa) Wind (kt) Class Image Chart
1982 2 12 00 -11.7 104.2 1006 0 0 Image --
1982 2 12 06 -11.8 104.6 1005 0 0 Image --
1982 2 12 12 -12.0 105.1 1005 0 0 Image --
1982 2 12 18 -12.2 105.5 1004 0 0 Image --
1982 2 13 00 -12.3 106.0 1004 0 0 Image --
1982 2 13 06 -12.3 106.6 1002 0 0 Image --
1982 2 13 12 -12.2 107.2 1002 0 0 Image --
1982 2 13 18 -12.1 107.6 1001 0 0 Image --
1982 2 14 00 -12.0 108.0 999 0 0 Image --
1982 2 14 06 -12.0 108.3 998 0 0 Image --
1982 2 14 12 -12.0 108.7 996 0 0 Image --
1982 2 14 18 -12.0 109.1 994 0 0 Image --
1982 2 15 00 -12.0 109.7 990 0 0 Image --
1982 2 15 06 -12.2 110.3 988 0 0 Image --
1982 2 15 12 -12.6 110.9 988 0 0 Image --
1982 2 15 18 -12.9 111.3 988 0 0 Image --
1982 2 16 00 -13.3 111.6 988 0 0 Image --
1982 2 16 06 -13.7 111.9 990 0 0 Image --
1982 2 16 12 -13.9 112.0 994 0 0 Image --
1982 2 16 18 -14.4 111.8 994 0 0 Image --
1982 2 17 00 -14.5 111.2 994 0 0 Image --
1982 2 17 06 -14.5 110.8 994 0 0 Image --
1982 2 17 12 -14.3 110.4 994 0 0 Image --
1982 2 17 18 -14.0 110.1 994 0 0 Image --
1982 2 18 00 -13.5 110.1 994 0 0 Image --
1982 2 18 06 -13.4 110.5 995 0 0 Image --
1982 2 18 12 -13.6 110.7 998 0 0 Image --
1982 2 18 18 -14.0 110.6 1002 0 0 Image --
1982 2 19 00 -13.9 110.2 1003 0 0 Image --
1982 2 19 06 -13.4 110.0 1003 0 0 Image --
1982 2 19 12 -13.0 110.0 1003 0 0 Image --
1982 2 19 18 -12.6 109.9 1003 0 0 Image --
1982 2 20 00 -12.4 109.3 1003 0 0 Image --
1982 2 20 06 -12.3 108.6 1003 0 0 Image --
1982 2 20 12 -12.2 108.0 1004 0 0 Image --
1982 2 20 18 -12.1 107.3 1005 0 0 Image --
1982 2 21 00 -12.0 106.3 1006 0 0 Image --
< Cyclone 198211 1982 Season Cyclone 198213 >

Help